createdAt,value
2023-02-23T00:06:35.833Z,88.03
2023-02-23T00:16:39.589Z,89.37
2023-02-23T00:26:45.452Z,87.03
2023-02-23T00:36:52.014Z,85.20
2023-02-23T00:46:57.161Z,87.80
2023-02-23T00:57:00.977Z,88.20
2023-02-23T01:07:06.754Z,86.47
2023-02-23T01:17:10.779Z,90.77
2023-02-23T01:27:15.975Z,89.77
2023-02-23T01:37:19.795Z,87.60
2023-02-23T01:47:27.450Z,89.43
2023-02-23T01:57:31.835Z,87.27
2023-02-23T02:07:39.701Z,86.30
2023-02-23T02:17:49.816Z,90.60
2023-02-23T02:28:38.616Z,89.00
2023-02-23T02:38:55.315Z,88.90
2023-02-23T02:49:06.479Z,88.93
2023-02-23T02:59:35.732Z,88.10
2023-02-23T03:10:06.112Z,88.63
2023-02-23T03:20:38.574Z,87.43
2023-02-23T03:31:10.389Z,88.53
2023-02-23T03:41:37.219Z,88.23
2023-02-23T03:52:01.252Z,91.37
2023-02-23T04:02:27.188Z,88.90
2023-02-23T04:12:53.472Z,89.43
2023-02-23T04:22:59.087Z,86.70
2023-02-23T04:33:04.231Z,90.57
2023-02-23T04:43:10.140Z,90.20
2023-02-23T04:53:13.826Z,90.10
2023-02-23T05:03:19.034Z,92.77
2023-02-23T05:13:23.423Z,87.03
2023-02-23T05:23:28.828Z,87.77
2023-02-23T05:33:33.053Z,89.70
2023-02-23T05:43:38.406Z,102.27
2023-02-23T05:53:43.096Z,94.53
2023-02-23T06:03:49.564Z,88.63
2023-02-23T06:13:53.594Z,90.63
2023-02-23T06:24:00.861Z,89.17
2023-02-23T06:34:04.638Z,95.93
2023-02-23T06:44:09.982Z,89.27
2023-02-23T06:54:13.914Z,96.40
2023-02-23T07:04:19.239Z,93.93
2023-02-23T07:14:27.009Z,91.23
2023-02-23T07:24:32.457Z,101.00
2023-02-23T07:34:37.380Z,102.00
2023-02-23T07:44:42.335Z,99.00
2023-02-23T07:54:45.944Z,97.37
2023-02-23T08:04:54.159Z,98.13
2023-02-23T08:14:57.663Z,104.07
2023-02-23T08:25:06.108Z,103.63
2023-02-23T08:35:11.554Z,106.80
2023-02-23T08:45:17.061Z,113.47
2023-02-23T08:55:21.795Z,107.67
2023-02-23T09:05:26.800Z,108.20
2023-02-23T09:15:30.498Z,112.77
2023-02-23T09:25:35.337Z,121.87
2023-02-23T09:35:39.779Z,117.90
2023-02-23T09:45:49.002Z,120.23
2023-02-23T09:55:55.253Z,117.87
2023-02-23T10:06:07.067Z,122.53
2023-02-23T10:16:20.520Z,122.50
2023-02-23T10:26:32.026Z,124.20
2023-02-23T10:36:39.562Z,125.17
2023-02-23T10:46:45.377Z,124.63
2023-02-23T10:56:49.168Z,127.17
2023-02-23T11:07:09.632Z,133.10
2023-02-23T11:17:28.908Z,137.13
2023-02-23T11:27:34.157Z,140.37
2023-02-23T11:37:37.896Z,144.70
2023-02-23T11:47:49.540Z,138.05
2023-02-23T11:57:56.851Z,133.57
2023-02-23T12:08:07.033Z,134.40
2023-02-23T12:18:23.127Z,135.63
2023-02-23T12:28:35.131Z,127.93
2023-02-23T12:38:49.956Z,125.63
2023-02-23T12:49:03.875Z,125.17
2023-02-23T12:59:33.066Z,121.13
2023-02-23T13:09:55.067Z,120.40
2023-02-23T13:20:03.318Z,121.20
2023-02-23T13:30:12.380Z,117.30
2023-02-23T13:40:30.270Z,116.00
2023-02-23T13:50:46.619Z,116.53
2023-02-23T14:01:05.309Z,115.80
2023-02-23T14:11:10.637Z,120.13
2023-02-23T14:21:27.959Z,125.63
2023-02-23T14:31:36.656Z,116.27
2023-02-23T14:41:46.704Z,114.30
2023-02-23T14:51:54.980Z,111.43
2023-02-23T15:02:02.348Z,117.20
2023-02-23T15:12:17.245Z,117.80
2023-02-23T15:22:28.601Z,111.70
2023-02-23T15:32:39.441Z,108.57
2023-02-23T15:42:47.259Z,124.20
2023-02-23T15:52:58.902Z,106.53
2023-02-23T16:03:04.945Z,118.13
2023-02-23T16:13:13.762Z,105.10
2023-02-23T16:23:34.155Z,110.57
2023-02-23T16:33:48.637Z,108.20
2023-02-23T16:43:55.523Z,105.53
2023-02-23T16:54:00.778Z,98.37
2023-02-23T17:04:04.407Z,106.07
2023-02-23T17:14:09.470Z,106.70
2023-02-23T17:24:13.112Z,102.67
2023-02-23T17:34:18.291Z,108.47
2023-02-23T17:44:22.139Z,107.53
2023-02-23T17:54:27.360Z,112.47
2023-02-23T18:04:31.043Z,110.97
2023-02-23T18:14:37.839Z,99.20
2023-02-23T18:24:42.528Z,99.00
2023-02-23T18:34:47.696Z,102.83
2023-02-23T18:44:51.600Z,100.43
2023-02-23T18:54:56.767Z,102.23
2023-02-23T19:05:03.063Z,102.07
2023-02-23T19:15:10.712Z,99.40
2023-02-23T19:25:15.505Z,105.20
2023-02-23T19:35:20.846Z,119.07
2023-02-23T19:45:26.117Z,103.00
2023-02-23T19:55:31.308Z,116.33
2023-02-23T20:05:42.449Z,135.63
2023-02-23T20:15:47.651Z,135.30
2023-02-23T20:25:51.549Z,135.40
2023-02-23T20:35:56.760Z,130.13
2023-02-23T20:46:01.315Z,115.50
2023-02-23T20:56:08.188Z,124.00
2023-02-23T21:06:11.981Z,123.47
2023-02-23T21:16:19.841Z,128.97
2023-02-23T21:26:24.189Z,130.03
2023-02-23T21:36:29.328Z,135.13
2023-02-23T21:46:36.213Z,123.03
2023-02-23T21:56:41.474Z,131.57
2023-02-23T22:06:46.521Z,127.13
2023-02-23T22:16:51.788Z,138.33
2023-02-23T22:26:55.884Z,127.50
2023-02-23T22:37:02.280Z,134.97
2023-02-23T22:47:06.526Z,133.87
2023-02-23T22:57:11.758Z,130.93
2023-02-23T23:07:15.495Z,129.20
2023-02-23T23:17:21.177Z,121.57
2023-02-23T23:27:25.233Z,123.43
2023-02-23T23:37:30.474Z,121.80
2023-02-23T23:47:34.464Z,120.07
2023-02-23T23:57:40.468Z,119.70
